sensor_id;sensor_type;location;lat;lon;timestamp;temperature;humidity
42095;DHT22;27753;55.724;37.612;2023-08-06T00:00:24;23.70;85.50
42095;DHT22;27753;55.724;37.612;2023-08-06T00:02:50;23.70;85.60
42095;DHT22;27753;55.724;37.612;2023-08-06T00:05:16;23.70;85.30
42095;DHT22;27753;55.724;37.612;2023-08-06T00:07:49;23.70;85.70
42095;DHT22;27753;55.724;37.612;2023-08-06T00:10:16;23.60;85.40
42095;DHT22;27753;55.724;37.612;2023-08-06T00:12:42;23.60;85.70
42095;DHT22;27753;55.724;37.612;2023-08-06T00:15:09;23.60;85.40
42095;DHT22;27753;55.724;37.612;2023-08-06T00:17:35;23.60;85.60
42095;DHT22;27753;55.724;37.612;2023-08-06T00:20:02;23.60;85.00
42095;DHT22;27753;55.724;37.612;2023-08-06T00:22:36;23.60;85.40
42095;DHT22;27753;55.724;37.612;2023-08-06T00:25:03;23.60;85.40
42095;DHT22;27753;55.724;37.612;2023-08-06T00:27:29;23.60;85.90
42095;DHT22;27753;55.724;37.612;2023-08-06T00:29:55;23.60;85.50
42095;DHT22;27753;55.724;37.612;2023-08-06T00:32:21;23.60;85.20
42095;DHT22;27753;55.724;37.612;2023-08-06T00:34:47;23.60;85.60
42095;DHT22;27753;55.724;37.612;2023-08-06T00:37:16;23.60;85.90
42095;DHT22;27753;55.724;37.612;2023-08-06T00:39:43;23.60;85.90
42095;DHT22;27753;55.724;37.612;2023-08-06T00:42:12;23.50;86.10
42095;DHT22;27753;55.724;37.612;2023-08-06T00:44:39;23.50;86.40
42095;DHT22;27753;55.724;37.612;2023-08-06T00:47:07;23.50;86.30
42095;DHT22;27753;55.724;37.612;2023-08-06T00:49:33;23.50;86.50
42095;DHT22;27753;55.724;37.612;2023-08-06T00:51:59;23.50;85.90
42095;DHT22;27753;55.724;37.612;2023-08-06T00:54:26;23.40;86.90
42095;DHT22;27753;55.724;37.612;2023-08-06T00:56:53;23.40;87.40
42095;DHT22;27753;55.724;37.612;2023-08-06T00:59:19;23.40;87.40
42095;DHT22;27753;55.724;37.612;2023-08-06T01:01:46;23.40;87.70
42095;DHT22;27753;55.724;37.612;2023-08-06T01:04:12;23.40;87.80
42095;DHT22;27753;55.724;37.612;2023-08-06T01:06:48;23.30;87.00
42095;DHT22;27753;55.724;37.612;2023-08-06T01:17:33;23.20;88.10
42095;DHT22;27753;55.724;37.612;2023-08-06T01:19:59;23.20;88.70
42095;DHT22;27753;55.724;37.612;2023-08-06T01:22:25;23.20;88.90
42095;DHT22;27753;55.724;37.612;2023-08-06T01:24:51;23.20;89.30
42095;DHT22;27753;55.724;37.612;2023-08-06T01:27:21;23.20;89.50
42095;DHT22;27753;55.724;37.612;2023-08-06T01:29:56;23.10;89.40
42095;DHT22;27753;55.724;37.612;2023-08-06T01:32:25;23.10;89.80
42095;DHT22;27753;55.724;37.612;2023-08-06T01:34:52;23.10;89.80
42095;DHT22;27753;55.724;37.612;2023-08-06T01:37:19;23.10;89.80
42095;DHT22;27753;55.724;37.612;2023-08-06T01:39:45;23.10;90.00
42095;DHT22;27753;55.724;37.612;2023-08-06T01:42:10;23.10;90.00
42095;DHT22;27753;55.724;37.612;2023-08-06T01:44:36;23.10;90.10
42095;DHT22;27753;55.724;37.612;2023-08-06T01:47:02;23.00;90.10
42095;DHT22;27753;55.724;37.612;2023-08-06T01:49:28;23.00;90.20
42095;DHT22;27753;55.724;37.612;2023-08-06T01:51:54;23.00;90.10
42095;DHT22;27753;55.724;37.612;2023-08-06T01:54:20;23.00;90.10
42095;DHT22;27753;55.724;37.612;2023-08-06T01:56:46;23.00;90.20
42095;DHT22;27753;55.724;37.612;2023-08-06T01:59:12;23.00;90.30
42095;DHT22;27753;55.724;37.612;2023-08-06T02:01:37;23.00;90.30
42095;DHT22;27753;55.724;37.612;2023-08-06T02:04:03;23.00;90.60
42095;DHT22;27753;55.724;37.612;2023-08-06T02:06:29;23.00;90.40
42095;DHT22;27753;55.724;37.612;2023-08-06T02:08:55;23.00;90.20
42095;DHT22;27753;55.724;37.612;2023-08-06T02:11:21;23.00;90.40
42095;DHT22;27753;55.724;37.612;2023-08-06T02:13:47;23.00;90.50
42095;DHT22;27753;55.724;37.612;2023-08-06T02:16:13;23.00;90.50
42095;DHT22;27753;55.724;37.612;2023-08-06T02:18:39;23.00;90.40
42095;DHT22;27753;55.724;37.612;2023-08-06T02:21:05;23.00;90.50
42095;DHT22;27753;55.724;37.612;2023-08-06T02:23:31;23.10;90.20
42095;DHT22;27753;55.724;37.612;2023-08-06T02:26:02;23.10;90.30
42095;DHT22;27753;55.724;37.612;2023-08-06T02:28:29;23.10;90.30
42095;DHT22;27753;55.724;37.612;2023-08-06T02:30:55;23.10;90.30
42095;DHT22;27753;55.724;37.612;2023-08-06T02:33:23;23.20;90.20
42095;DHT22;27753;55.724;37.612;2023-08-06T02:35:48;23.20;90.00
42095;DHT22;27753;55.724;37.612;2023-08-06T02:38:14;23.30;89.60
42095;DHT22;27753;55.724;37.612;2023-08-06T02:40:45;23.30;90.10
42095;DHT22;27753;55.724;37.612;2023-08-06T02:43:12;23.30;90.00
42095;DHT22;27753;55.724;37.612;2023-08-06T02:45:37;23.40;89.80
42095;DHT22;27753;55.724;37.612;2023-08-06T02:48:03;23.50;89.50
42095;DHT22;27753;55.724;37.612;2023-08-06T02:50:29;23.60;89.50
42095;DHT22;27753;55.724;37.612;2023-08-06T02:52:55;23.70;89.10
42095;DHT22;27753;55.724;37.612;2023-08-06T02:55:21;23.70;89.00
42095;DHT22;27753;55.724;37.612;2023-08-06T02:57:48;23.80;88.70
42095;DHT22;27753;55.724;37.612;2023-08-06T03:00:16;23.90;87.40
42095;DHT22;27753;55.724;37.612;2023-08-06T03:02:42;24.00;87.40
42095;DHT22;27753;55.724;37.612;2023-08-06T03:05:07;24.00;87.30
42095;DHT22;27753;55.724;37.612;2023-08-06T03:07:33;24.00;87.20
42095;DHT22;27753;55.724;37.612;2023-08-06T03:10:02;24.10;86.70
42095;DHT22;27753;55.724;37.612;2023-08-06T03:12:28;24.20;86.60
42095;DHT22;27753;55.724;37.612;2023-08-06T03:14:54;24.20;86.50
42095;DHT22;27753;55.724;37.612;2023-08-06T03:17:20;24.30;86.20
42095;DHT22;27753;55.724;37.612;2023-08-06T03:19:46;24.30;86.10
42095;DHT22;27753;55.724;37.612;2023-08-06T03:22:11;24.40;85.90
42095;DHT22;27753;55.724;37.612;2023-08-06T03:24:37;24.40;85.40
42095;DHT22;27753;55.724;37.612;2023-08-06T03:27:03;24.50;85.40
42095;DHT22;27753;55.724;37.612;2023-08-06T03:29:29;24.60;84.80
42095;DHT22;27753;55.724;37.612;2023-08-06T03:31:55;24.60;84.90
42095;DHT22;27753;55.724;37.612;2023-08-06T03:34:21;24.60;84.20
42095;DHT22;27753;55.724;37.612;2023-08-06T03:36:47;24.80;84.30
42095;DHT22;27753;55.724;37.612;2023-08-06T03:39:13;24.80;83.70
42095;DHT22;27753;55.724;37.612;2023-08-06T03:41:39;24.90;83.40
42095;DHT22;27753;55.724;37.612;2023-08-06T03:44:05;24.90;83.60
42095;DHT22;27753;55.724;37.612;2023-08-06T03:46:31;25.00;83.30
42095;DHT22;27753;55.724;37.612;2023-08-06T03:49:00;25.10;82.90
42095;DHT22;27753;55.724;37.612;2023-08-06T03:51:26;25.10;82.50
42095;DHT22;27753;55.724;37.612;2023-08-06T03:53:52;25.20;82.50
42095;DHT22;27753;55.724;37.612;2023-08-06T03:56:18;25.20;82.30
42095;DHT22;27753;55.724;37.612;2023-08-06T03:58:44;25.30;82.40
42095;DHT22;27753;55.724;37.612;2023-08-06T04:01:09;25.40;82.30
42095;DHT22;27753;55.724;37.612;2023-08-06T04:03:35;25.40;81.90
42095;DHT22;27753;55.724;37.612;2023-08-06T04:06:04;25.50;81.30
42095;DHT22;27753;55.724;37.612;2023-08-06T04:08:30;25.60;80.80
42095;DHT22;27753;55.724;37.612;2023-08-06T04:10:57;25.60;80.80
42095;DHT22;27753;55.724;37.612;2023-08-06T04:13:23;25.60;80.90
42095;DHT22;27753;55.724;37.612;2023-08-06T04:15:52;25.70;81.20
42095;DHT22;27753;55.724;37.612;2023-08-06T04:18:18;25.80;80.70
42095;DHT22;27753;55.724;37.612;2023-08-06T04:20:52;25.80;80.60
42095;DHT22;27753;55.724;37.612;2023-08-06T04:23:21;25.80;80.00
42095;DHT22;27753;55.724;37.612;2023-08-06T04:25:47;25.90;79.60
42095;DHT22;27753;55.724;37.612;2023-08-06T04:28:13;25.90;79.70
42095;DHT22;27753;55.724;37.612;2023-08-06T04:30:39;26.00;79.90
42095;DHT22;27753;55.724;37.612;2023-08-06T04:33:06;26.10;79.70
42095;DHT22;27753;55.724;37.612;2023-08-06T04:35:34;26.10;79.30
42095;DHT22;27753;55.724;37.612;2023-08-06T04:38:01;26.20;78.90
42095;DHT22;27753;55.724;37.612;2023-08-06T04:40:28;26.20;79.00
42095;DHT22;27753;55.724;37.612;2023-08-06T04:43:03;26.20;78.30
42095;DHT22;27753;55.724;37.612;2023-08-06T04:45:29;26.30;78.10
42095;DHT22;27753;55.724;37.612;2023-08-06T04:47:55;26.40;77.90
42095;DHT22;27753;55.724;37.612;2023-08-06T04:50:21;26.50;77.80
42095;DHT22;27753;55.724;37.612;2023-08-06T04:52:48;26.50;78.20
42095;DHT22;27753;55.724;37.612;2023-08-06T04:55:14;26.60;78.30
42095;DHT22;27753;55.724;37.612;2023-08-06T04:57:40;26.90;78.30
42095;DHT22;27753;55.724;37.612;2023-08-06T05:00:07;27.40;77.20
42095;DHT22;27753;55.724;37.612;2023-08-06T05:02:33;28.10;74.70
42095;DHT22;27753;55.724;37.612;2023-08-06T05:05:01;28.90;72.50
42095;DHT22;27753;55.724;37.612;2023-08-06T05:07:29;29.90;70.80
42095;DHT22;27753;55.724;37.612;2023-08-06T05:09:54;30.70;67.60
42095;DHT22;27753;55.724;37.612;2023-08-06T05:12:21;31.50;65.80
42095;DHT22;27753;55.724;37.612;2023-08-06T05:14:47;32.20;63.90
42095;DHT22;27753;55.724;37.612;2023-08-06T05:17:13;32.70;62.60
42095;DHT22;27753;55.724;37.612;2023-08-06T05:19:39;33.30;59.90
42095;DHT22;27753;55.724;37.612;2023-08-06T05:22:05;33.80;59.00
42095;DHT22;27753;55.724;37.612;2023-08-06T05:24:32;34.30;57.90
42095;DHT22;27753;55.724;37.612;2023-08-06T05:26:58;34.80;56.30
42095;DHT22;27753;55.724;37.612;2023-08-06T05:29:24;35.20;55.30
42095;DHT22;27753;55.724;37.612;2023-08-06T05:31:50;35.70;54.90
42095;DHT22;27753;55.724;37.612;2023-08-06T05:34:16;36.20;53.40
42095;DHT22;27753;55.724;37.612;2023-08-06T05:36:42;36.40;52.30
42095;DHT22;27753;55.724;37.612;2023-08-06T05:39:09;36.50;51.70
42095;DHT22;27753;55.724;37.612;2023-08-06T05:41:37;36.90;52.40
42095;DHT22;27753;55.724;37.612;2023-08-06T05:44:03;37.10;50.50
42095;DHT22;27753;55.724;37.612;2023-08-06T05:46:38;37.20;50.00
42095;DHT22;27753;55.724;37.612;2023-08-06T05:49:09;37.60;49.70
42095;DHT22;27753;55.724;37.612;2023-08-06T05:51:35;37.90;50.50
42095;DHT22;27753;55.724;37.612;2023-08-06T05:54:02;38.50;48.90
42095;DHT22;27753;55.724;37.612;2023-08-06T05:58:58;39.00;48.70
42095;DHT22;27753;55.724;37.612;2023-08-06T06:01:25;40.20;46.00
42095;DHT22;27753;55.724;37.612;2023-08-06T06:03:51;40.70;45.40
42095;DHT22;27753;55.724;37.612;2023-08-06T06:06:17;41.50;43.90
42095;DHT22;27753;55.724;37.612;2023-08-06T06:11:11;42.10;42.90
42095;DHT22;27753;55.724;37.612;2023-08-06T06:13:39;43.10;42.90
42095;DHT22;27753;55.724;37.612;2023-08-06T06:16:08;43.10;41.60
42095;DHT22;27753;55.724;37.612;2023-08-06T06:18:34;43.30;41.70
42095;DHT22;27753;55.724;37.612;2023-08-06T06:21:00;43.80;41.10
42095;DHT22;27753;55.724;37.612;2023-08-06T06:28:19;44.10;42.00
42095;DHT22;27753;55.724;37.612;2023-08-06T06:30:45;45.10;39.40
42095;DHT22;27753;55.724;37.612;2023-08-06T06:33:11;45.10;38.70
42095;DHT22;27753;55.724;37.612;2023-08-06T06:35:36;45.50;38.60
42095;DHT22;27753;55.724;37.612;2023-08-06T06:38:02;45.70;39.90
42095;DHT22;27753;55.724;37.612;2023-08-06T06:40:28;46.00;38.40
42095;DHT22;27753;55.724;37.612;2023-08-06T06:42:54;46.40;37.50
42095;DHT22;27753;55.724;37.612;2023-08-06T06:45:20;46.60;37.00
42095;DHT22;27753;55.724;37.612;2023-08-06T06:47:49;46.40;36.90
42095;DHT22;27753;55.724;37.612;2023-08-06T06:50:38;46.30;37.00
42095;DHT22;27753;55.724;37.612;2023-08-06T06:53:12;46.40;37.20
42095;DHT22;27753;55.724;37.612;2023-08-06T06:55:40;46.70;37.10
42095;DHT22;27753;55.724;37.612;2023-08-06T06:58:08;47.10;36.80
42095;DHT22;27753;55.724;37.612;2023-08-06T07:00:47;47.30;36.30
42095;DHT22;27753;55.724;37.612;2023-08-06T07:03:16;47.50;35.90
42095;DHT22;27753;55.724;37.612;2023-08-06T07:05:44;47.80;35.70
42095;DHT22;27753;55.724;37.612;2023-08-06T07:08:22;48.00;35.30
42095;DHT22;27753;55.724;37.612;2023-08-06T07:11:00;48.30;35.30
42095;DHT22;27753;55.724;37.612;2023-08-06T07:33:43;48.50;35.40
42095;DHT22;27753;55.724;37.612;2023-08-06T07:36:12;48.60;34.10
42095;DHT22;27753;55.724;37.612;2023-08-06T07:38:38;48.80;33.70
42095;DHT22;27753;55.724;37.612;2023-08-06T07:41:04;49.10;33.70
42095;DHT22;27753;55.724;37.612;2023-08-06T07:43:31;49.30;33.40
42095;DHT22;27753;55.724;37.612;2023-08-06T07:46:00;49.50;33.20
42095;DHT22;27753;55.724;37.612;2023-08-06T07:48:27;49.70;33.60
42095;DHT22;27753;55.724;37.612;2023-08-06T07:53:25;50.00;33.20
42095;DHT22;27753;55.724;37.612;2023-08-06T07:55:55;50.00;32.70
42095;DHT22;27753;55.724;37.612;2023-08-06T07:58:23;49.90;32.90
42095;DHT22;27753;55.724;37.612;2023-08-06T08:00:49;49.80;33.00
42095;DHT22;27753;55.724;37.612;2023-08-06T08:03:15;50.10;33.00
42095;DHT22;27753;55.724;37.612;2023-08-06T08:05:42;50.40;32.60
42095;DHT22;27753;55.724;37.612;2023-08-06T08:08:09;50.10;32.80
42095;DHT22;27753;55.724;37.612;2023-08-06T08:10:35;50.10;32.60
42095;DHT22;27753;55.724;37.612;2023-08-06T08:13:04;49.80;32.80
42095;DHT22;27753;55.724;37.612;2023-08-06T08:15:31;49.70;33.20
42095;DHT22;27753;55.724;37.612;2023-08-06T08:17:58;50.10;33.00
42095;DHT22;27753;55.724;37.612;2023-08-06T08:20:24;50.20;32.90
42095;DHT22;27753;55.724;37.612;2023-08-06T08:22:50;49.80;32.90
42095;DHT22;27753;55.724;37.612;2023-08-06T08:25:17;49.80;32.90
42095;DHT22;27753;55.724;37.612;2023-08-06T08:27:42;49.60;33.40
42095;DHT22;27753;55.724;37.612;2023-08-06T08:30:08;49.70;33.50
42095;DHT22;27753;55.724;37.612;2023-08-06T08:32:34;49.90;33.50
42095;DHT22;27753;55.724;37.612;2023-08-06T08:35:00;50.40;33.20
42095;DHT22;27753;55.724;37.612;2023-08-06T08:37:26;50.20;33.00
42095;DHT22;27753;55.724;37.612;2023-08-06T08:39:52;50.10;33.10
42095;DHT22;27753;55.724;37.612;2023-08-06T08:42:18;49.30;33.80
42095;DHT22;27753;55.724;37.612;2023-08-06T08:44:45;49.30;33.90
42095;DHT22;27753;55.724;37.612;2023-08-06T08:47:11;49.30;34.00
42095;DHT22;27753;55.724;37.612;2023-08-06T08:49:37;49.30;34.10
42095;DHT22;27753;55.724;37.612;2023-08-06T08:52:04;49.60;33.90
42095;DHT22;27753;55.724;37.612;2023-08-06T08:54:38;50.20;33.60
42095;DHT22;27753;55.724;37.612;2023-08-06T08:57:04;50.80;33.20
42095;DHT22;27753;55.724;37.612;2023-08-06T08:59:33;51.60;32.80
42095;DHT22;27753;55.724;37.612;2023-08-06T09:04:29;51.90;32.60
42095;DHT22;27753;55.724;37.612;2023-08-06T09:06:58;51.90;32.50
42095;DHT22;27753;55.724;37.612;2023-08-06T09:09:34;52.10;32.20
42095;DHT22;27753;55.724;37.612;2023-08-06T09:12:14;52.10;32.40
42095;DHT22;27753;55.724;37.612;2023-08-06T09:14:40;52.00;32.30
42095;DHT22;27753;55.724;37.612;2023-08-06T09:17:06;51.90;32.30
42095;DHT22;27753;55.724;37.612;2023-08-06T09:19:33;52.10;31.80
42095;DHT22;27753;55.724;37.612;2023-08-06T09:21:59;52.10;31.70
42095;DHT22;27753;55.724;37.612;2023-08-06T09:24:25;51.90;31.60
42095;DHT22;27753;55.724;37.612;2023-08-06T09:26:54;51.80;32.00
42095;DHT22;27753;55.724;37.612;2023-08-06T09:29:20;51.50;31.90
42095;DHT22;27753;55.724;37.612;2023-08-06T09:31:52;50.80;31.90
42095;DHT22;27753;55.724;37.612;2023-08-06T09:34:22;49.00;33.00
42095;DHT22;27753;55.724;37.612;2023-08-06T09:36:50;48.40;33.80
42095;DHT22;27753;55.724;37.612;2023-08-06T09:39:29;48.20;34.20
42095;DHT22;27753;55.724;37.612;2023-08-06T09:41:59;48.50;34.10
42095;DHT22;27753;55.724;37.612;2023-08-06T09:44:27;49.30;33.80
42095;DHT22;27753;55.724;37.612;2023-08-06T09:46:55;49.60;33.20
42095;DHT22;27753;55.724;37.612;2023-08-06T09:49:25;49.40;33.50
42095;DHT22;27753;55.724;37.612;2023-08-06T09:51:53;49.20;33.30
42095;DHT22;27753;55.724;37.612;2023-08-06T09:54:23;48.50;33.40
42095;DHT22;27753;55.724;37.612;2023-08-06T09:56:49;47.60;34.20
42095;DHT22;27753;55.724;37.612;2023-08-06T09:59:15;47.90;34.60
42095;DHT22;27753;55.724;37.612;2023-08-06T10:01:41;48.20;34.50
42095;DHT22;27753;55.724;37.612;2023-08-06T10:04:07;48.10;34.70
42095;DHT22;27753;55.724;37.612;2023-08-06T10:06:37;47.90;34.60
42095;DHT22;27753;55.724;37.612;2023-08-06T10:09:06;48.10;34.70
42095;DHT22;27753;55.724;37.612;2023-08-06T10:11:36;48.20;34.50
42095;DHT22;27753;55.724;37.612;2023-08-06T10:14:29;48.70;34.50
42095;DHT22;27753;55.724;37.612;2023-08-06T10:16:57;48.70;34.40
42095;DHT22;27753;55.724;37.612;2023-08-06T10:19:25;48.20;34.20
42095;DHT22;27753;55.724;37.612;2023-08-06T10:22:13;47.00;34.90
42095;DHT22;27753;55.724;37.612;2023-08-06T10:24:55;46.30;35.50
42095;DHT22;27753;55.724;37.612;2023-08-06T10:27:33;46.40;36.50
42095;DHT22;27753;55.724;37.612;2023-08-06T10:32:47;46.40;35.40
42095;DHT22;27753;55.724;37.612;2023-08-06T10:38:16;41.80;39.70
42095;DHT22;27753;55.724;37.612;2023-08-06T10:43:36;39.20;43.90
42095;DHT22;27753;55.724;37.612;2023-08-06T10:46:21;38.30;43.60
42095;DHT22;27753;55.724;37.612;2023-08-06T10:48:47;37.40;45.70
42095;DHT22;27753;55.724;37.612;2023-08-06T10:51:13;37.00;46.50
42095;DHT22;27753;55.724;37.612;2023-08-06T10:53:44;36.60;47.10
42095;DHT22;27753;55.724;37.612;2023-08-06T10:56:18;36.30;48.20
42095;DHT22;27753;55.724;37.612;2023-08-06T10:58:46;36.10;48.60
42095;DHT22;27753;55.724;37.612;2023-08-06T11:01:13;35.80;49.80
42095;DHT22;27753;55.724;37.612;2023-08-06T11:03:40;35.50;49.30
42095;DHT22;27753;55.724;37.612;2023-08-06T11:06:10;35.30;49.90
42095;DHT22;27753;55.724;37.612;2023-08-06T11:08:40;35.20;50.10
42095;DHT22;27753;55.724;37.612;2023-08-06T11:11:13;35.20;50.10
42095;DHT22;27753;55.724;37.612;2023-08-06T11:13:44;35.10;50.20
42095;DHT22;27753;55.724;37.612;2023-08-06T11:16:13;34.80;50.00
42095;DHT22;27753;55.724;37.612;2023-08-06T11:18:40;34.70;50.50
42095;DHT22;27753;55.724;37.612;2023-08-06T11:21:08;34.60;50.40
42095;DHT22;27753;55.724;37.612;2023-08-06T11:23:34;34.40;51.00
42095;DHT22;27753;55.724;37.612;2023-08-06T11:26:01;34.20;51.80
42095;DHT22;27753;55.724;37.612;2023-08-06T11:28:27;34.20;52.10
42095;DHT22;27753;55.724;37.612;2023-08-06T11:30:53;34.00;51.80
42095;DHT22;27753;55.724;37.612;2023-08-06T11:33:27;33.70;52.50
42095;DHT22;27753;55.724;37.612;2023-08-06T11:35:55;33.60;52.80
42095;DHT22;27753;55.724;37.612;2023-08-06T11:38:24;33.30;53.00
42095;DHT22;27753;55.724;37.612;2023-08-06T11:40:51;33.10;52.90
42095;DHT22;27753;55.724;37.612;2023-08-06T11:43:20;33.20;53.50
42095;DHT22;27753;55.724;37.612;2023-08-06T11:45:48;33.30;54.20
42095;DHT22;27753;55.724;37.612;2023-08-06T11:48:15;33.40;54.40
42095;DHT22;27753;55.724;37.612;2023-08-06T11:50:40;33.60;53.60
42095;DHT22;27753;55.724;37.612;2023-08-06T11:53:06;33.50;53.70
42095;DHT22;27753;55.724;37.612;2023-08-06T11:55:33;33.50;53.30
42095;DHT22;27753;55.724;37.612;2023-08-06T11:58:03;33.40;53.80
42095;DHT22;27753;55.724;37.612;2023-08-06T12:00:33;33.40;53.90
42095;DHT22;27753;55.724;37.612;2023-08-06T12:02:59;33.50;53.90
42095;DHT22;27753;55.724;37.612;2023-08-06T12:05:31;33.50;53.30
42095;DHT22;27753;55.724;37.612;2023-08-06T12:08:02;33.40;54.00
42095;DHT22;27753;55.724;37.612;2023-08-06T12:10:30;33.40;54.00
42095;DHT22;27753;55.724;37.612;2023-08-06T12:12:57;33.30;54.40
42095;DHT22;27753;55.724;37.612;2023-08-06T12:15:23;33.10;54.10
42095;DHT22;27753;55.724;37.612;2023-08-06T12:17:49;33.20;54.80
42095;DHT22;27753;55.724;37.612;2023-08-06T12:20:16;33.40;55.00
42095;DHT22;27753;55.724;37.612;2023-08-06T12:22:41;33.50;54.50
42095;DHT22;27753;55.724;37.612;2023-08-06T12:25:09;33.60;54.10
42095;DHT22;27753;55.724;37.612;2023-08-06T12:27:44;33.50;53.70
42095;DHT22;27753;55.724;37.612;2023-08-06T12:30:11;33.60;53.70
42095;DHT22;27753;55.724;37.612;2023-08-06T12:32:38;33.60;53.40
42095;DHT22;27753;55.724;37.612;2023-08-06T12:35:04;33.40;53.30
42095;DHT22;27753;55.724;37.612;2023-08-06T12:37:30;33.30;53.40
42095;DHT22;27753;55.724;37.612;2023-08-06T12:39:56;33.10;54.00
42095;DHT22;27753;55.724;37.612;2023-08-06T12:42:22;32.90;53.50
42095;DHT22;27753;55.724;37.612;2023-08-06T12:44:56;32.80;54.20
42095;DHT22;27753;55.724;37.612;2023-08-06T12:47:22;32.70;54.60
42095;DHT22;27753;55.724;37.612;2023-08-06T12:49:49;32.70;55.30
42095;DHT22;27753;55.724;37.612;2023-08-06T12:52:15;32.70;55.20
42095;DHT22;27753;55.724;37.612;2023-08-06T12:54:42;32.50;55.50
42095;DHT22;27753;55.724;37.612;2023-08-06T12:57:08;32.20;56.10
42095;DHT22;27753;55.724;37.612;2023-08-06T12:59:34;32.30;56.20
42095;DHT22;27753;55.724;37.612;2023-08-06T13:02:02;32.20;56.70
42095;DHT22;27753;55.724;37.612;2023-08-06T13:04:28;32.30;56.70
42095;DHT22;27753;55.724;37.612;2023-08-06T13:06:54;32.50;56.80
42095;DHT22;27753;55.724;37.612;2023-08-06T13:09:20;32.50;56.00
42095;DHT22;27753;55.724;37.612;2023-08-06T13:11:46;32.40;55.50
42095;DHT22;27753;55.724;37.612;2023-08-06T13:14:15;32.20;56.10
42095;DHT22;27753;55.724;37.612;2023-08-06T13:16:42;32.10;56.10
42095;DHT22;27753;55.724;37.612;2023-08-06T13:19:09;32.10;56.40
42095;DHT22;27753;55.724;37.612;2023-08-06T13:22:02;32.30;55.60
42095;DHT22;27753;55.724;37.612;2023-08-06T13:24:29;32.20;55.40
42095;DHT22;27753;55.724;37.612;2023-08-06T13:26:55;32.20;56.40
42095;DHT22;27753;55.724;37.612;2023-08-06T13:29:21;32.10;56.70
42095;DHT22;27753;55.724;37.612;2023-08-06T13:31:47;32.20;56.80
42095;DHT22;27753;55.724;37.612;2023-08-06T13:34:13;32.30;56.60
42095;DHT22;27753;55.724;37.612;2023-08-06T13:36:42;32.30;56.70
42095;DHT22;27753;55.724;37.612;2023-08-06T13:39:08;32.50;56.60
42095;DHT22;27753;55.724;37.612;2023-08-06T13:41:34;32.50;56.80
42095;DHT22;27753;55.724;37.612;2023-08-06T13:43:59;32.50;56.70
42095;DHT22;27753;55.724;37.612;2023-08-06T13:46:25;32.50;56.70
42095;DHT22;27753;55.724;37.612;2023-08-06T13:48:51;32.60;56.80
42095;DHT22;27753;55.724;37.612;2023-08-06T13:51:18;32.60;56.90
42095;DHT22;27753;55.724;37.612;2023-08-06T13:53:46;32.70;56.30
42095;DHT22;27753;55.724;37.612;2023-08-06T13:56:11;32.80;56.20
42095;DHT22;27753;55.724;37.612;2023-08-06T13:58:38;33.30;55.90
42095;DHT22;27753;55.724;37.612;2023-08-06T14:01:04;33.90;54.90
42095;DHT22;27753;55.724;37.612;2023-08-06T14:03:30;34.40;54.00
42095;DHT22;27753;55.724;37.612;2023-08-06T14:05:56;34.60;52.20
42095;DHT22;27753;55.724;37.612;2023-08-06T14:08:23;34.90;51.90
42095;DHT22;27753;55.724;37.612;2023-08-06T14:10:50;35.30;51.40
42095;DHT22;27753;55.724;37.612;2023-08-06T14:13:16;35.10;52.10
42095;DHT22;27753;55.724;37.612;2023-08-06T14:15:42;35.50;51.80
42095;DHT22;27753;55.724;37.612;2023-08-06T14:18:12;36.10;50.70
42095;DHT22;27753;55.724;37.612;2023-08-06T14:20:39;36.60;50.10
42095;DHT22;27753;55.724;37.612;2023-08-06T14:23:05;36.90;49.50
42095;DHT22;27753;55.724;37.612;2023-08-06T14:25:31;37.10;48.70
42095;DHT22;27753;55.724;37.612;2023-08-06T14:27:57;37.30;49.40
42095;DHT22;27753;55.724;37.612;2023-08-06T14:30:23;37.30;48.40
42095;DHT22;27753;55.724;37.612;2023-08-06T14:32:49;36.80;48.70
42095;DHT22;27753;55.724;37.612;2023-08-06T14:35:15;36.60;49.30
42095;DHT22;27753;55.724;37.612;2023-08-06T14:37:41;36.30;50.00
42095;DHT22;27753;55.724;37.612;2023-08-06T14:40:08;36.40;50.10
42095;DHT22;27753;55.724;37.612;2023-08-06T14:42:34;36.60;49.70
42095;DHT22;27753;55.724;37.612;2023-08-06T14:45:00;36.60;49.40
42095;DHT22;27753;55.724;37.612;2023-08-06T14:47:25;36.20;49.80
42095;DHT22;27753;55.724;37.612;2023-08-06T14:49:51;36.20;50.20
42095;DHT22;27753;55.724;37.612;2023-08-06T14:52:17;36.20;50.30
42095;DHT22;27753;55.724;37.612;2023-08-06T14:54:43;36.30;50.30
42095;DHT22;27753;55.724;37.612;2023-08-06T14:57:12;36.20;50.00
42095;DHT22;27753;55.724;37.612;2023-08-06T14:59:39;36.20;50.00
42095;DHT22;27753;55.724;37.612;2023-08-06T15:02:05;36.10;50.00
42095;DHT22;27753;55.724;37.612;2023-08-06T15:04:31;35.80;50.70
42095;DHT22;27753;55.724;37.612;2023-08-06T15:06:57;35.60;50.30
42095;DHT22;27753;55.724;37.612;2023-08-06T15:09:23;35.50;50.80
42095;DHT22;27753;55.724;37.612;2023-08-06T15:11:49;35.40;50.80
42095;DHT22;27753;55.724;37.612;2023-08-06T15:14:16;35.20;50.80
42095;DHT22;27753;55.724;37.612;2023-08-06T15:16:46;35.00;51.20
42095;DHT22;27753;55.724;37.612;2023-08-06T15:19:11;34.80;52.00
42095;DHT22;27753;55.724;37.612;2023-08-06T15:21:39;34.60;51.80
42095;DHT22;27753;55.724;37.612;2023-08-06T15:24:05;34.30;51.90
42095;DHT22;27753;55.724;37.612;2023-08-06T15:26:33;33.80;52.70
42095;DHT22;27753;55.724;37.612;2023-08-06T15:29:00;33.30;53.40
42095;DHT22;27753;55.724;37.612;2023-08-06T15:31:38;32.90;54.40
42095;DHT22;27753;55.724;37.612;2023-08-06T15:34:06;32.50;55.50
42095;DHT22;27753;55.724;37.612;2023-08-06T15:36:36;32.20;55.40
42095;DHT22;27753;55.724;37.612;2023-08-06T15:39:05;32.00;56.30
42095;DHT22;27753;55.724;37.612;2023-08-06T15:41:31;31.80;56.60
42095;DHT22;27753;55.724;37.612;2023-08-06T15:43:57;31.70;57.10
42095;DHT22;27753;55.724;37.612;2023-08-06T15:46:23;31.50;57.00
42095;DHT22;27753;55.724;37.612;2023-08-06T15:48:49;31.40;57.70
42095;DHT22;27753;55.724;37.612;2023-08-06T15:51:15;31.30;57.50
42095;DHT22;27753;55.724;37.612;2023-08-06T15:53:41;31.20;57.90
42095;DHT22;27753;55.724;37.612;2023-08-06T15:56:06;31.20;57.80
42095;DHT22;27753;55.724;37.612;2023-08-06T15:58:32;31.10;59.00
42095;DHT22;27753;55.724;37.612;2023-08-06T16:00:58;31.00;58.40
42095;DHT22;27753;55.724;37.612;2023-08-06T16:03:24;30.90;58.30
42095;DHT22;27753;55.724;37.612;2023-08-06T16:05:50;30.90;58.40
42095;DHT22;27753;55.724;37.612;2023-08-06T16:08:15;30.80;58.80